Time;durP1;ratioP1;P1;durP2;ratioP2;P2;SDS_P1;SDS_P2;PMS_P1;PMS_P2;Temp;Humidity;BMP_temperature;BMP_pressure;BME280_temperature;BME280_humidity;BME280_pressure;Samples;Min_cycle;Max_cycle;Signal;HPM_P1;HPM_P2
2024/01/06 00:01:28;;;;;;;33.65;9.77;;;9.70;99.90;;;;;;5106595;28;20032;-50
2024/01/06 00:03:54;;;;;;;37.45;9.73;;;9.80;99.90;;;;;;5106613;28;20024;-50
2024/01/06 00:06:20;;;;;;;42.90;9.27;;;9.80;99.90;;;;;;5106464;28;20032;-50
2024/01/06 00:08:46;;;;;;;32.03;8.85;;;9.70;99.90;;;;;;5106012;28;20051;-50
2024/01/06 00:11:12;;;;;;;32.92;9.13;;;9.70;99.90;;;;;;5106421;28;20045;-49
2024/01/06 00:13:37;;;;;;;29.98;9.30;;;9.70;99.90;;;;;;5106560;28;20042;-50
2024/01/06 00:16:03;;;;;;;39.50;8.98;;;9.70;99.90;;;;;;5106418;28;20032;-50
2024/01/06 00:18:28;;;;;;;35.95;9.98;;;9.70;99.90;;;;;;5106512;28;20028;-50
2024/01/06 00:20:54;;;;;;;37.15;9.27;;;9.70;99.90;;;;;;5106437;28;20032;-49
2024/01/06 00:23:20;;;;;;;31.13;9.23;;;9.70;99.90;;;;;;5106400;28;20036;-49
2024/01/06 00:25:45;;;;;;;42.47;9.27;;;9.70;99.90;;;;;;5106889;28;20023;-50
2024/01/06 00:28:11;;;;;;;34.92;10.30;;;9.70;99.90;;;;;;5106920;28;20471;-49
2024/01/06 00:30:36;;;;;;;38.38;8.88;;;9.70;99.90;;;;;;5106241;28;20038;-50
2024/01/06 00:33:02;;;;;;;35.55;9.48;;;9.70;99.90;;;;;;5087943;28;20035;-50
2024/01/06 00:35:27;;;;;;;39.72;10.30;;;9.70;99.90;;;;;;5106155;28;20258;-49
2024/01/06 00:37:55;;;;;;;31.73;9.45;;;9.70;99.90;;;;;;5108701;28;20032;-50
2024/01/06 00:40:20;;;;;;;34.40;9.07;;;9.60;99.90;;;;;;5110235;28;20111;-50
2024/01/06 00:42:47;;;;;;;32.40;9.57;;;9.60;99.90;;;;;;5110334;28;20059;-50
2024/01/06 00:45:13;;;;;;;34.72;9.38;;;9.60;99.90;;;;;;5110375;28;20058;-50
2024/01/06 00:47:38;;;;;;;29.45;9.05;;;9.60;99.90;;;;;;5109968;28;20027;-50
2024/01/06 00:50:04;;;;;;;31.67;8.73;;;9.60;99.90;;;;;;5110086;28;20030;-50
2024/01/06 00:52:30;;;;;;;30.80;8.48;;;9.60;99.90;;;;;;5110108;28;20028;-50
2024/01/06 00:54:55;;;;;;;29.98;9.30;;;9.60;99.90;;;;;;5110205;28;20020;-50
2024/01/06 00:57:24;;;;;;;30.08;9.18;;;9.60;99.90;;;;;;5109988;28;20052;-50
2024/01/06 00:59:49;;;;;;;23.17;8.20;;;9.60;99.90;;;;;;5110170;28;20028;-50
2024/01/06 01:02:15;;;;;;;21.27;8.65;;;9.60;99.90;;;;;;5110003;28;20070;-50
2024/01/06 01:04:40;;;;;;;27.30;8.20;;;9.50;99.90;;;;;;5109969;28;20491;-50
2024/01/06 01:07:06;;;;;;;22.33;8.57;;;9.50;99.90;;;;;;5109761;28;20024;-50
2024/01/06 01:09:32;;;;;;;29.60;8.25;;;9.50;99.90;;;;;;5109943;28;20032;-49
2024/01/06 01:11:57;;;;;;;26.85;8.95;;;9.50;99.90;;;;;;5109752;28;20028;-50
2024/01/06 01:14:23;;;;;;;25.30;8.93;;;9.50;99.90;;;;;;5109761;28;20107;-49
2024/01/06 01:16:48;;;;;;;22.02;8.50;;;9.50;99.90;;;;;;5109542;28;20020;-49
2024/01/06 01:19:14;;;;;;;27.83;8.98;;;9.50;99.90;;;;;;5109660;28;20036;-50
2024/01/06 01:21:40;;;;;;;24.30;8.80;;;9.50;99.90;;;;;;5109555;28;20192;-49
2024/01/06 01:24:05;;;;;;;27.50;8.38;;;9.50;99.90;;;;;;5109681;28;20066;-50
2024/01/06 01:26:31;;;;;;;21.63;8.57;;;9.50;99.90;;;;;;5109479;28;20039;-50
2024/01/06 01:28:56;;;;;;;27.17;9.60;;;9.50;99.90;;;;;;5109443;28;20039;-50
2024/01/06 01:31:22;;;;;;;30.75;9.02;;;9.50;99.90;;;;;;5109372;28;20107;-50
2024/01/06 01:33:48;;;;;;;26.50;8.65;;;9.50;99.90;;;;;;5109286;28;20102;-50
2024/01/06 01:36:13;;;;;;;24.20;8.50;;;9.50;99.90;;;;;;5091122;28;20039;-50
2024/01/06 01:38:39;;;;;;;21.88;8.32;;;9.50;99.90;;;;;;5109409;28;20046;-50
2024/01/06 01:41:04;;;;;;;20.90;7.88;;;9.40;99.90;;;;;;5109261;28;20461;-50
2024/01/06 01:43:30;;;;;;;30.90;9.02;;;9.40;99.90;;;;;;5109287;28;20198;-50
2024/01/06 01:45:55;;;;;;;24.75;8.82;;;9.40;99.90;;;;;;5109180;28;20077;-49
2024/01/06 01:48:22;;;;;;;27.10;9.23;;;9.40;99.90;;;;;;5090592;28;20044;-50
2024/01/06 01:50:47;;;;;;;26.02;8.65;;;9.40;99.90;;;;;;5091010;28;20039;-50
2024/01/06 01:53:13;;;;;;;21.98;9.30;;;9.40;99.90;;;;;;5108977;28;20020;-50
2024/01/06 01:55:39;;;;;;;22.33;8.25;;;9.40;99.90;;;;;;5090898;28;20088;-49
2024/01/06 01:58:05;;;;;;;14.25;7.80;;;9.40;99.90;;;;;;5090745;28;20028;-50
2024/01/06 02:00:31;;;;;;;19.80;8.23;;;9.40;99.90;;;;;;5108794;28;20107;-50
2024/01/06 02:02:57;;;;;;;20.90;7.22;;;9.40;99.90;;;;;;5108657;28;20032;-50
2024/01/06 02:05:23;;;;;;;21.70;7.70;;;9.40;99.90;;;;;;5090863;28;20111;-49
2024/01/06 02:07:50;;;;;;;21.85;7.85;;;9.40;99.90;;;;;;5108835;28;20032;-49
2024/01/06 02:10:16;;;;;;;19.02;7.93;;;9.40;99.90;;;;;;5108750;28;20028;-50
2024/01/06 02:12:42;;;;;;;19.42;8.27;;;9.40;99.90;;;;;;5090568;28;20027;-50
2024/01/06 02:15:08;;;;;;;21.33;8.20;;;9.40;99.90;;;;;;5090430;28;20024;-49
2024/01/06 02:17:34;;;;;;;20.27;8.13;;;9.40;99.90;;;;;;5108533;28;20035;-50
2024/01/06 02:19:59;;;;;;;16.83;7.70;;;9.40;99.90;;;;;;5108529;28;20032;-49
2024/01/06 02:22:25;;;;;;;19.40;8.60;;;9.30;99.90;;;;;;5108545;28;20108;-50
2024/01/06 02:24:50;;;;;;;21.10;7.55;;;9.30;99.90;;;;;;5108552;28;20024;-50
2024/01/06 02:27:16;;;;;;;24.20;8.23;;;9.30;99.90;;;;;;5108425;28;20024;-50
2024/01/06 02:29:41;;;;;;;13.90;6.72;;;9.30;99.90;;;;;;5108572;28;20047;-49
2024/01/06 02:32:07;;;;;;;16.00;6.50;;;9.30;99.90;;;;;;5108835;28;20028;-49
2024/01/06 02:34:34;;;;;;;16.58;7.63;;;9.30;99.90;;;;;;5108278;28;20036;-49
2024/01/06 02:37:00;;;;;;;19.08;8.15;;;9.30;99.90;;;;;;5108236;28;20050;-49
2024/01/06 02:39:25;;;;;;;13.48;7.05;;;9.30;99.90;;;;;;5089899;28;20484;-49
2024/01/06 02:41:51;;;;;;;19.52;7.72;;;9.30;99.90;;;;;;5107987;28;20024;-49
2024/01/06 02:44:16;;;;;;;14.35;7.30;;;9.30;99.90;;;;;;5108169;28;20105;-49
2024/01/06 02:46:42;;;;;;;15.05;7.85;;;9.30;99.90;;;;;;5107915;28;20039;-49
2024/01/06 02:49:08;;;;;;;17.08;8.05;;;9.30;99.90;;;;;;5108040;28;20039;-50
2024/01/06 02:51:34;;;;;;;12.95;6.85;;;9.30;99.90;;;;;;5107936;28;20020;-50
2024/01/06 02:53:59;;;;;;;17.27;7.30;;;9.20;99.90;;;;;;5107791;28;20024;-50
2024/01/06 02:56:25;;;;;;;16.13;7.68;;;9.20;99.90;;;;;;5107729;28;20020;-49
2024/01/06 02:58:50;;;;;;;18.80;7.32;;;9.20;99.90;;;;;;5089442;28;20031;-49
2024/01/06 03:01:17;;;;;;;16.70;7.03;;;9.20;99.90;;;;;;5106915;28;20027;-50
2024/01/06 03:03:42;;;;;;;12.90;7.35;;;9.20;99.90;;;;;;5107692;28;20028;-49
2024/01/06 03:06:08;;;;;;;13.82;7.22;;;9.20;99.90;;;;;;5107613;28;20483;-49
2024/01/06 03:08:34;;;;;;;16.58;6.82;;;9.30;99.90;;;;;;5107460;28;20074;-49
2024/01/06 03:11:00;;;;;;;14.57;7.35;;;9.20;99.90;;;;;;5107553;28;20043;-49
2024/01/06 03:13:26;;;;;;;19.88;7.18;;;9.20;99.90;;;;;;5089132;28;20058;-50
2024/01/06 03:15:52;;;;;;;16.90;7.63;;;9.20;99.90;;;;;;5089239;28;20020;-49
2024/01/06 03:18:17;;;;;;;13.88;7.32;;;9.20;99.90;;;;;;5107436;28;20039;-50
2024/01/06 03:20:43;;;;;;;17.35;6.65;;;9.20;99.90;;;;;;5107168;28;20028;-49
2024/01/06 03:23:08;;;;;;;11.57;6.80;;;9.20;99.90;;;;;;5107234;28;20074;-50
2024/01/06 03:25:34;;;;;;;12.57;6.75;;;9.20;99.90;;;;;;5107149;28;20028;-49
2024/01/06 03:27:59;;;;;;;14.27;6.70;;;9.20;99.90;;;;;;5107280;28;20044;-50
2024/01/06 03:30:25;;;;;;;14.52;7.22;;;9.20;99.90;;;;;;5107156;28;20048;-50
2024/01/06 03:32:50;;;;;;;13.32;7.13;;;9.20;99.90;;;;;;5106993;28;20129;-49
2024/01/06 03:35:16;;;;;;;10.75;6.53;;;9.20;99.90;;;;;;5107089;28;20036;-49
2024/01/06 03:37:42;;;;;;;13.25;7.18;;;9.10;99.90;;;;;;5107027;28;20353;-50
2024/01/06 03:40:08;;;;;;;16.98;6.85;;;9.10;99.90;;;;;;5107097;28;20028;-50
2024/01/06 03:42:34;;;;;;;10.70;5.80;;;9.10;99.90;;;;;;5106925;28;20437;-51
2024/01/06 03:44:59;;;;;;;14.75;6.30;;;9.10;99.90;;;;;;5106994;28;20036;-50
2024/01/06 03:47:25;;;;;;;12.32;7.28;;;9.10;99.90;;;;;;5106800;28;20024;-49
2024/01/06 03:49:51;;;;;;;15.52;5.97;;;9.10;99.90;;;;;;5088826;28;20063;-50
2024/01/06 03:52:17;;;;;;;9.40;5.55;;;9.10;99.90;;;;;;5106784;28;20095;-49
2024/01/06 03:54:42;;;;;;;15.63;6.60;;;9.10;99.90;;;;;;5106917;28;20038;-50
2024/01/06 03:57:08;;;;;;;12.10;6.03;;;9.10;99.90;;;;;;5106993;28;20535;-50
2024/01/06 03:59:33;;;;;;;15.85;6.38;;;9.10;99.90;;;;;;5088857;28;20032;-49
2024/01/06 04:01:59;;;;;;;14.73;6.30;;;9.10;99.90;;;;;;5106661;28;20035;-50
2024/01/06 04:04:25;;;;;;;11.65;6.22;;;9.10;99.90;;;;;;5106583;28;20521;-50
2024/01/06 04:06:50;;;;;;;11.48;6.55;;;9.10;99.90;;;;;;5106773;28;20095;-50
2024/01/06 04:09:16;;;;;;;10.10;5.80;;;9.10;99.90;;;;;;5106536;28;20032;-48
2024/01/06 04:11:41;;;;;;;11.20;6.45;;;9.00;99.90;;;;;;5106519;28;20020;-50
2024/01/06 04:14:07;;;;;;;11.90;6.03;;;9.00;99.90;;;;;;5088348;28;20028;-50
2024/01/06 04:16:33;;;;;;;13.60;6.30;;;9.10;99.90;;;;;;5106517;28;20387;-50
2024/01/06 04:18:58;;;;;;;10.88;5.93;;;9.00;99.90;;;;;;5106339;28;20038;-50
2024/01/06 04:21:24;;;;;;;8.73;5.47;;;9.00;99.90;;;;;;5106306;28;20028;-50
2024/01/06 04:23:50;;;;;;;9.55;5.55;;;9.00;99.90;;;;;;5106485;28;20036;-50
2024/01/06 04:26:15;;;;;;;9.95;5.45;;;9.00;99.90;;;;;;5106261;28;20034;-50
2024/01/06 04:28:41;;;;;;;8.95;5.68;;;9.00;99.90;;;;;;5088288;28;20024;-50
2024/01/06 04:31:06;;;;;;;9.00;5.13;;;9.00;99.90;;;;;;5106069;28;20023;-50
2024/01/06 04:33:32;;;;;;;11.32;5.55;;;9.00;99.90;;;;;;5106088;28;20028;-50
2024/01/06 04:35:59;;;;;;;10.07;5.40;;;9.00;99.90;;;;;;5106188;28;20040;-50
2024/01/06 04:38:24;;;;;;;9.18;4.95;;;9.00;99.90;;;;;;5106674;28;20099;-49
2024/01/06 04:40:50;;;;;;;7.40;4.80;;;9.00;99.90;;;;;;5106418;28;20364;-50
2024/01/06 04:43:15;;;;;;;9.27;5.32;;;8.90;99.90;;;;;;5106196;28;20034;-49
2024/01/06 04:45:41;;;;;;;11.00;5.10;;;9.00;99.90;;;;;;5106172;28;20040;-49
2024/01/06 04:48:07;;;;;;;9.05;5.30;;;8.90;99.90;;;;;;5106086;28;20036;-50
2024/01/06 04:50:32;;;;;;;8.43;4.97;;;8.90;99.90;;;;;;5106209;28;20016;-49
2024/01/06 04:52:58;;;;;;;9.48;5.15;;;8.90;99.90;;;;;;5106054;28;20418;-50
2024/01/06 04:55:23;;;;;;;8.05;4.80;;;8.90;99.90;;;;;;5106048;28;20026;-49
2024/01/06 04:57:49;;;;;;;7.65;4.60;;;8.90;99.90;;;;;;5106022;28;20060;-49
2024/01/06 05:00:15;;;;;;;9.55;4.90;;;8.90;99.90;;;;;;5106077;28;20118;-49
2024/01/06 05:02:41;;;;;;;9.60;4.60;;;8.90;99.90;;;;;;5105685;28;20031;-50
2024/01/06 05:05:06;;;;;;;11.30;4.50;;;8.90;99.90;;;;;;5105875;28;20021;-49
2024/01/06 05:07:32;;;;;;;6.97;4.90;;;8.90;99.90;;;;;;5105683;28;20028;-50
2024/01/06 05:09:57;;;;;;;8.35;4.47;;;8.90;99.90;;;;;;5106096;28;20024;-49
2024/01/06 05:12:23;;;;;;;6.63;4.68;;;8.90;99.90;;;;;;5105902;28;20024;-50
2024/01/06 05:14:49;;;;;;;8.30;5.10;;;8.90;99.90;;;;;;5105972;28;20032;-50
2024/01/06 05:17:14;;;;;;;5.65;3.90;;;8.90;99.90;;;;;;5087529;28;20016;-49
2024/01/06 05:19:40;;;;;;;7.57;4.30;;;8.90;99.90;;;;;;5105940;28;20036;-50
2024/01/06 05:22:05;;;;;;;9.63;4.53;;;8.90;99.90;;;;;;5105892;28;20028;-49
2024/01/06 05:24:31;;;;;;;7.38;4.57;;;8.90;99.90;;;;;;5109091;28;20032;-50
2024/01/06 05:26:56;;;;;;;7.72;3.70;;;8.90;99.90;;;;;;5109225;28;20024;-49
2024/01/06 05:29:22;;;;;;;4.70;3.75;;;8.90;99.90;;;;;;5109582;28;20024;-49
2024/01/06 05:31:48;;;;;;;8.90;3.95;;;8.90;99.90;;;;;;5109491;28;20499;-50
2024/01/06 05:34:15;;;;;;;8.10;4.15;;;8.90;99.90;;;;;;5109286;28;20032;-50
2024/01/06 05:36:40;;;;;;;6.85;3.72;;;8.90;99.90;;;;;;5109321;28;20028;-49
2024/01/06 05:39:07;;;;;;;10.90;4.38;;;8.90;99.90;;;;;;5109373;28;20044;-49
2024/01/06 05:41:38;;;;;;;9.52;3.25;;;8.90;99.90;;;;;;5109256;28;20031;-50
2024/01/06 05:44:04;;;;;;;13.88;4.35;;;8.90;99.90;;;;;;5109071;28;20040;-50
2024/01/06 05:46:30;;;;;;;17.30;4.00;;;8.90;99.90;;;;;;5109002;28;20028;-50
2024/01/06 05:48:56;;;;;;;21.48;4.10;;;9.00;99.90;;;;;;5108992;28;20028;-50
2024/01/06 05:51:22;;;;;;;20.48;4.53;;;8.90;99.90;;;;;;5108862;28;20040;-49
2024/01/06 05:53:47;;;;;;;22.00;3.75;;;8.90;99.90;;;;;;5108672;28;20024;-50
2024/01/06 05:56:25;;;;;;;7.75;3.70;;;8.90;99.90;;;;;;5108793;28;20097;-49
2024/01/06 05:58:51;;;;;;;15.73;3.95;;;8.90;99.90;;;;;;5108726;28;20043;-50
2024/01/06 06:01:17;;;;;;;18.88;3.83;;;8.90;99.90;;;;;;5108731;28;20028;-49
2024/01/06 06:03:43;;;;;;;18.98;3.75;;;8.90;99.90;;;;;;5108587;28;20046;-50
2024/01/06 06:06:08;;;;;;;19.83;4.38;;;9.00;99.90;;;;;;5108670;28;20031;-49
2024/01/06 06:08:34;;;;;;;26.38;4.18;;;8.90;99.90;;;;;;5108567;28;20035;-50
2024/01/06 06:11:10;;;;;;;25.63;4.53;;;8.90;99.90;;;;;;5108665;28;20038;-49
2024/01/06 06:13:40;;;;;;;16.88;4.00;;;9.00;99.90;;;;;;5108627;28;20028;-50
2024/01/06 06:16:06;;;;;;;20.52;3.75;;;8.90;99.90;;;;;;5108479;28;20023;-50
2024/01/06 06:18:32;;;;;;;22.55;4.20;;;8.90;99.90;;;;;;5108441;28;20058;-49
2024/01/06 06:20:59;;;;;;;16.98;4.03;;;9.00;99.90;;;;;;5108192;28;20048;-49
2024/01/06 06:23:24;;;;;;;33.13;4.22;;;8.90;99.90;;;;;;5108134;28;20086;-49
2024/01/06 06:25:51;;;;;;;17.83;3.72;;;9.00;99.90;;;;;;5108076;28;20040;-50
2024/01/06 06:28:16;;;;;;;25.60;4.22;;;8.90;99.90;;;;;;5108187;28;20036;-50
2024/01/06 06:30:43;;;;;;;23.20;4.70;;;8.90;99.90;;;;;;5108152;28;20047;-49
2024/01/06 06:33:08;;;;;;;27.65;5.90;;;8.90;99.90;;;;;;5108251;28;20031;-49
2024/01/06 06:35:34;;;;;;;49.67;7.15;;;8.90;99.90;;;;;;5106896;28;20483;-50
2024/01/06 06:37:59;;;;;;;33.08;5.95;;;8.90;99.90;;;;;;5108554;28;20042;-49
2024/01/06 06:40:25;;;;;;;33.80;5.85;;;8.90;99.90;;;;;;5108303;28;20468;-49
2024/01/06 06:42:50;;;;;;;30.67;5.03;;;8.90;99.90;;;;;;5107784;28;20032;-50
2024/01/06 06:45:16;;;;;;;25.85;4.70;;;8.90;99.90;;;;;;5107763;28;20032;-50
2024/01/06 06:47:42;;;;;;;28.85;5.80;;;8.90;99.90;;;;;;5107721;28;20040;-49
2024/01/06 06:50:07;;;;;;;22.27;4.53;;;8.90;99.90;;;;;;5107930;28;20020;-50
2024/01/06 06:52:33;;;;;;;24.65;4.88;;;8.90;99.90;;;;;;5107753;28;20027;-50
2024/01/06 06:54:58;;;;;;;23.60;4.05;;;8.90;99.90;;;;;;5107827;28;20030;-49
2024/01/06 06:57:24;;;;;;;30.27;4.88;;;8.90;99.90;;;;;;5107602;28;20028;-50
2024/01/06 06:59:50;;;;;;;22.33;5.03;;;8.90;99.90;;;;;;5107795;28;20034;-49
2024/01/06 07:02:15;;;;;;;23.38;4.25;;;8.90;99.90;;;;;;5107530;28;20087;-50
2024/01/06 07:04:41;;;;;;;21.98;4.90;;;8.90;99.90;;;;;;5089242;28;20130;-49
2024/01/06 07:07:06;;;;;;;33.75;5.15;;;8.90;99.90;;;;;;5107448;28;20034;-49
2024/01/06 07:09:32;;;;;;;29.67;5.65;;;8.90;99.90;;;;;;5107608;28;20029;-50
2024/01/06 07:11:57;;;;;;;30.17;5.55;;;8.80;99.90;;;;;;5096858;28;20050;-50
2024/01/06 07:14:23;;;;;;;23.42;4.90;;;8.90;99.90;;;;;;5087687;28;20036;-50
2024/01/06 07:16:49;;;;;;;27.27;5.47;;;8.80;99.90;;;;;;5102722;28;20093;-49
2024/01/06 07:19:15;;;;;;;16.83;5.22;;;8.80;99.90;;;;;;5087172;28;20035;-50
2024/01/06 07:21:40;;;;;;;28.75;5.70;;;8.80;99.90;;;;;;5087091;28;20035;-50
2024/01/06 07:24:06;;;;;;;22.80;4.63;;;8.80;99.90;;;;;;5087040;28;20122;-49
2024/01/06 07:26:32;;;;;;;21.92;5.38;;;8.80;99.90;;;;;;5086829;28;20024;-50
2024/01/06 07:28:57;;;;;;;21.55;5.38;;;8.80;99.90;;;;;;5086981;28;20388;-50
2024/01/06 07:31:23;;;;;;;18.80;5.07;;;8.80;99.90;;;;;;5086948;28;20016;-50
2024/01/06 07:33:48;;;;;;;17.65;4.20;;;8.80;99.90;;;;;;5086484;28;20037;-49
2024/01/06 07:36:14;;;;;;;20.25;4.32;;;8.80;99.90;;;;;;5086845;28;20056;-50
2024/01/06 07:38:40;;;;;;;22.77;4.63;;;8.80;99.90;;;;;;5086776;28;20115;-49
2024/01/06 07:41:06;;;;;;;23.58;4.18;;;8.80;99.90;;;;;;5086666;28;20365;-50
2024/01/06 07:43:32;;;;;;;23.20;4.00;;;8.80;99.90;;;;;;5086566;28;20428;-49
2024/01/06 07:45:58;;;;;;;21.63;4.70;;;8.80;99.90;;;;;;5086422;28;20110;-49
2024/01/06 07:48:23;;;;;;;24.23;4.97;;;8.70;99.90;;;;;;5086389;28;20036;-50
2024/01/06 07:50:49;;;;;;;23.55;4.13;;;8.70;99.90;;;;;;5086502;28;20029;-49
2024/01/06 07:53:15;;;;;;;18.55;4.25;;;8.70;99.90;;;;;;5086461;28;20031;-49
2024/01/06 07:55:40;;;;;;;27.88;4.38;;;8.70;99.90;;;;;;5086486;28;20074;-50
2024/01/06 07:58:06;;;;;;;22.13;4.47;;;8.70;99.90;;;;;;5086543;28;20035;-50
2024/01/06 08:00:31;;;;;;;21.25;4.00;;;8.70;99.90;;;;;;5086430;28;20025;-49
2024/01/06 08:02:57;;;;;;;20.17;3.90;;;8.70;99.90;;;;;;5086636;28;20376;-50
2024/01/06 08:05:23;;;;;;;21.20;3.92;;;8.70;99.90;;;;;;5068523;28;20101;-49
2024/01/06 08:07:50;;;;;;;17.98;3.58;;;8.70;99.90;;;;;;5086257;28;20028;-50
2024/01/06 08:10:16;;;;;;;12.85;3.53;;;8.70;99.90;;;;;;5099406;28;20028;-50
2024/01/06 08:12:42;;;;;;;19.63;4.07;;;8.70;99.90;;;;;;5106141;28;20020;-50
2024/01/06 08:15:09;;;;;;;20.27;3.90;;;8.70;99.90;;;;;;5105464;28;20020;-49
2024/01/06 08:17:35;;;;;;;17.02;3.50;;;8.70;99.90;;;;;;5106407;28;20032;-50
2024/01/06 08:20:00;;;;;;;15.35;3.03;;;8.70;99.90;;;;;;5106642;28;20039;-50
2024/01/06 08:22:26;;;;;;;11.45;3.30;;;8.70;99.90;;;;;;5106445;28;20024;-50
2024/01/06 08:24:52;;;;;;;13.57;3.47;;;8.60;99.90;;;;;;5106559;28;20044;-49
2024/01/06 08:27:17;;;;;;;11.07;3.25;;;8.70;99.90;;;;;;5106316;28;20062;-50
2024/01/06 08:29:43;;;;;;;17.92;3.80;;;8.60;99.90;;;;;;5106415;28;20028;-49
2024/01/06 08:32:10;;;;;;;11.80;3.15;;;8.70;99.90;;;;;;5106330;28;20052;-49
2024/01/06 08:34:35;;;;;;;12.63;3.33;;;8.70;99.90;;;;;;5106229;28;20028;-50
2024/01/06 08:37:01;;;;;;;20.70;3.28;;;8.70;99.90;;;;;;5106241;28;20024;-49
2024/01/06 08:39:26;;;;;;;10.65;3.20;;;8.70;99.90;;;;;;5106197;28;20121;-49
2024/01/06 08:41:52;;;;;;;15.02;3.60;;;8.70;99.90;;;;;;5106715;28;20024;-49
2024/01/06 08:44:17;;;;;;;11.30;3.20;;;8.70;99.90;;;;;;5106329;28;20137;-50
2024/01/06 08:46:43;;;;;;;13.23;3.35;;;8.60;99.90;;;;;;5106036;28;20024;-50
2024/01/06 08:49:08;;;;;;;11.85;2.92;;;8.60;99.90;;;;;;5106078;28;20068;-50
2024/01/06 08:51:35;;;;;;;10.15;3.05;;;8.60;99.90;;;;;;5106186;28;20069;-50
2024/01/06 08:54:04;;;;;;;7.03;2.80;;;8.60;99.90;;;;;;5100990;28;20657;-49
2024/01/06 08:56:30;;;;;;;17.70;4.07;;;8.60;99.90;;;;;;5114000;28;20031;-49
2024/01/06 08:58:56;;;;;;;9.98;3.22;;;8.60;99.90;;;;;;5104961;28;20024;-49
2024/01/06 09:01:22;;;;;;;9.43;2.88;;;8.60;99.90;;;;;;5107547;28;20601;-50
2024/01/06 09:03:49;;;;;;;8.57;2.60;;;8.60;99.90;;;;;;5106357;28;20028;-49
2024/01/06 09:06:15;;;;;;;7.43;3.00;;;8.60;99.90;;;;;;5108657;28;20024;-50
2024/01/06 09:08:40;;;;;;;14.27;3.13;;;8.60;99.90;;;;;;5095304;28;20045;-50
2024/01/06 09:11:06;;;;;;;10.48;2.75;;;8.60;99.90;;;;;;5088756;28;20027;-49
2024/01/06 09:13:32;;;;;;;10.52;2.72;;;8.60;99.90;;;;;;5087896;28;20029;-49
2024/01/06 09:15:58;;;;;;;12.43;3.35;;;8.60;99.90;;;;;;5089253;28;20032;-49
2024/01/06 09:18:25;;;;;;;10.82;2.50;;;8.60;99.90;;;;;;5110746;28;20467;-49
2024/01/06 09:20:51;;;;;;;9.23;3.38;;;8.60;99.90;;;;;;5109049;28;20118;-50
2024/01/06 09:23:16;;;;;;;11.35;3.33;;;8.60;99.90;;;;;;5107237;28;20039;-50
2024/01/06 09:25:42;;;;;;;16.00;2.88;;;8.60;99.90;;;;;;5108679;28;20154;-49
2024/01/06 09:28:08;;;;;;;9.90;3.17;;;8.60;99.90;;;;;;5108996;28;20036;-50
2024/01/06 09:30:33;;;;;;;19.45;3.45;;;8.60;99.90;;;;;;5108856;28;20035;-49
2024/01/06 09:32:59;;;;;;;27.63;4.95;;;8.60;99.90;;;;;;5106774;28;20028;-50
2024/01/06 09:35:24;;;;;;;20.48;4.03;;;8.60;99.90;;;;;;5107754;28;20098;-50
2024/01/06 09:37:50;;;;;;;18.55;3.30;;;8.60;99.90;;;;;;5108663;28;20039;-49
2024/01/06 09:40:23;;;;;;;102.70;10.40;;;8.60;99.90;;;;;;5108598;28;20553;-49
2024/01/06 09:42:53;;;;;;;66.07;6.28;;;8.60;99.90;;;;;;5089806;28;20038;-50
2024/01/06 09:45:20;;;;;;;33.42;6.28;;;8.70;99.90;;;;;;5108176;28;20034;-50
2024/01/06 09:47:48;;;;;;;39.17;5.38;;;8.70;99.90;;;;;;5105766;28;20035;-49
2024/01/06 09:50:14;;;;;;;25.73;5.80;;;8.70;99.90;;;;;;5087073;28;20024;-50
2024/01/06 09:52:44;;;;;;;37.90;6.05;;;8.70;99.90;;;;;;5089037;28;20024;-50
2024/01/06 09:55:12;;;;;;;45.78;6.40;;;8.70;99.90;;;;;;5107708;28;20024;-49
2024/01/06 09:57:38;;;;;;;58.15;8.05;;;8.70;99.90;;;;;;5104268;28;20044;-49
2024/01/06 10:00:05;;;;;;;74.88;9.13;;;8.70;99.90;;;;;;5112660;28;20028;-49
2024/01/06 10:02:31;;;;;;;58.97;7.45;;;8.80;99.90;;;;;;5106328;28;20032;-49
2024/01/06 10:04:58;;;;;;;58.90;7.40;;;8.80;99.90;;;;;;5113536;28;20027;-49
2024/01/06 10:07:25;;;;;;;78.35;9.30;;;8.60;99.90;;;;;;5089164;28;20053;-49
2024/01/06 10:09:51;;;;;;;126.43;13.60;;;8.80;99.90;;;;;;5118000;28;20096;-49
2024/01/06 10:12:17;;;;;;;148.55;15.43;;;8.80;99.90;;;;;;5092381;28;20380;-49
2024/01/06 10:14:42;;;;;;;122.15;13.82;;;8.90;99.90;;;;;;5103035;28;20091;-50
2024/01/06 10:17:08;;;;;;;148.65;16.55;;;8.90;99.90;;;;;;5102627;28;20035;-49
2024/01/06 10:19:35;;;;;;;214.55;21.70;;;8.90;99.90;;;;;;5101328;28;20039;-49
2024/01/06 10:22:02;;;;;;;226.88;26.67;;;8.90;99.90;;;;;;5100188;28;20028;-50
2024/01/06 10:24:28;;;;;;;226.48;22.60;;;8.90;99.90;;;;;;5122150;28;20035;-50
2024/01/06 10:26:53;;;;;;;215.82;23.52;;;9.00;99.90;;;;;;5109514;28;20100;-49
2024/01/06 10:29:19;;;;;;;266.77;26.30;;;9.00;99.90;;;;;;5107462;28;20025;-49
2024/01/06 10:31:44;;;;;;;209.98;22.98;;;9.00;99.90;;;;;;5099769;28;20489;-49
2024/01/06 10:34:10;;;;;;;202.30;21.77;;;9.00;99.90;;;;;;5095897;28;20032;-50
2024/01/06 10:36:35;;;;;;;212.90;21.20;;;9.00;99.90;;;;;;5094967;28;20051;-49
2024/01/06 10:39:02;;;;;;;245.90;27.08;;;9.00;99.90;;;;;;5099362;28;20063;-49
2024/01/06 10:41:28;;;;;;;181.68;21.02;;;9.00;99.90;;;;;;5066580;28;20099;-49
2024/01/06 10:43:54;;;;;;;233.50;24.98;;;9.00;99.90;;;;;;5117397;28;20098;-49
2024/01/06 10:46:19;;;;;;;204.05;23.73;;;9.10;99.90;;;;;;5081708;28;20100;-49
2024/01/06 10:48:45;;;;;;;244.85;29.05;;;9.10;99.90;;;;;;5095028;28;20111;-50
2024/01/06 10:51:12;;;;;;;270.80;32.47;;;9.10;99.90;;;;;;5071942;28;20090;-50
2024/01/06 10:53:39;;;;;;;296.55;31.58;;;9.10;99.90;;;;;;5091588;28;20021;-49
2024/01/06 10:56:07;;;;;;;248.60;28.90;;;9.10;99.90;;;;;;5120857;27;20491;-50
2024/01/06 10:58:36;;;;;;;202.25;23.45;;;9.10;99.90;;;;;;5096471;28;20036;-50
2024/01/06 11:01:02;;;;;;;301.77;30.42;;;9.20;99.90;;;;;;5101812;28;20531;-50
2024/01/06 11:03:28;;;;;;;328.83;34.97;;;9.20;99.90;;;;;;5100363;28;20035;-49
2024/01/06 11:05:53;;;;;;;319.73;36.28;;;9.20;99.90;;;;;;5094732;28;20064;-49
2024/01/06 11:08:19;;;;;;;350.40;36.83;;;9.20;99.90;;;;;;5092905;28;20029;-50
2024/01/06 11:10:45;;;;;;;334.65;37.63;;;9.30;99.90;;;;;;5088014;28;20031;-49
2024/01/06 11:13:21;;;;;;;376.55;39.30;;;9.30;99.90;;;;;;5091404;28;20037;-50
2024/01/06 11:15:54;;;;;;;310.67;36.55;;;9.30;99.90;;;;;;5085214;28;20434;-50
2024/01/06 11:18:38;;;;;;;301.75;34.08;;;9.30;99.90;;;;;;5086700;28;20036;-50
2024/01/06 11:21:24;;;;;;;307.17;33.95;;;9.40;99.90;;;;;;5098049;28;20154;-50
2024/01/06 11:24:13;;;;;;;343.70;36.10;;;9.30;99.90;;;;;;5095864;28;20034;-50
2024/01/06 11:26:40;;;;;;;312.67;33.65;;;9.30;99.90;;;;;;5088527;28;20032;-49
2024/01/06 11:29:06;;;;;;;303.08;34.25;;;9.30;99.90;;;;;;5090625;28;20024;-49
2024/01/06 11:31:32;;;;;;;285.02;34.22;;;9.40;99.90;;;;;;5079091;28;20016;-49
2024/01/06 11:33:57;;;;;;;275.13;31.30;;;9.40;99.90;;;;;;5110274;28;20031;-49
2024/01/06 11:36:23;;;;;;;263.52;32.10;;;9.40;99.90;;;;;;5093584;28;20017;-49
2024/01/06 11:38:50;;;;;;;330.15;34.72;;;9.40;99.90;;;;;;5081153;28;20478;-50
2024/01/06 11:41:44;;;;;;;309.30;35.35;;;9.40;99.90;;;;;;5099529;28;20574;-50
2024/01/06 11:44:10;;;;;;;303.17;34.15;;;9.40;99.90;;;;;;5107741;28;20027;-50
2024/01/06 11:46:36;;;;;;;336.75;36.33;;;9.40;99.90;;;;;;5101002;28;20054;-50
2024/01/06 11:49:01;;;;;;;356.92;41.72;;;9.40;99.90;;;;;;5108891;28;20064;-50
2024/01/06 11:51:27;;;;;;;333.27;38.55;;;9.40;99.90;;;;;;5104684;28;20500;-49
2024/01/06 11:53:52;;;;;;;351.33;41.83;;;9.50;99.90;;;;;;5106700;28;20032;-49
2024/01/06 11:56:22;;;;;;;312.33;35.53;;;9.50;99.90;;;;;;5094388;28;20052;-50
2024/01/06 11:58:48;;;;;;;363.35;37.22;;;9.50;99.90;;;;;;5085956;28;20089;-49
2024/01/06 12:01:14;;;;;;;298.58;33.25;;;9.50;99.90;;;;;;5088906;28;20024;-50
2024/01/06 12:03:39;;;;;;;362.02;40.13;;;9.30;99.90;;;;;;5090839;28;20032;-50
2024/01/06 12:06:05;;;;;;;355.45;34.17;;;9.50;99.90;;;;;;5099038;28;20121;-50
2024/01/06 12:08:31;;;;;;;350.55;39.92;;;9.50;99.90;;;;;;5096153;28;20027;-50
2024/01/06 12:11:04;;;;;;;337.35;35.97;;;9.50;99.90;;;;;;5092443;28;20020;-49
2024/01/06 12:13:29;;;;;;;267.40;32.70;;;9.50;99.90;;;;;;5098469;28;20051;-49
2024/01/06 12:15:56;;;;;;;267.67;30.45;;;9.50;99.90;;;;;;5104625;28;20024;-49
2024/01/06 12:18:22;;;;;;;294.17;33.47;;;9.50;99.90;;;;;;5110924;28;20032;-49
2024/01/06 12:20:47;;;;;;;230.48;27.83;;;9.50;99.90;;;;;;5065280;28;20604;-50
2024/01/06 12:23:23;;;;;;;272.52;34.78;;;9.50;99.90;;;;;;5098146;28;20067;-49
2024/01/06 12:25:49;;;;;;;249.80;29.65;;;9.60;99.90;;;;;;5069511;28;20438;-50
2024/01/06 12:28:15;;;;;;;272.52;31.05;;;9.60;99.90;;;;;;5098723;28;20044;-50
2024/01/06 12:30:41;;;;;;;227.75;28.75;;;9.60;99.90;;;;;;5084870;28;20400;-49
2024/01/06 12:33:06;;;;;;;286.35;35.08;;;9.60;99.90;;;;;;5087036;28;20035;-49
2024/01/06 12:35:32;;;;;;;261.63;27.83;;;9.50;99.90;;;;;;5089142;28;20037;-50
2024/01/06 12:37:57;;;;;;;266.75;30.23;;;9.60;99.90;;;;;;5089356;28;20061;-50